createdAt,value
2019-02-23T00:03:11.518Z,20.75
2019-02-23T00:08:20.535Z,25.45
2019-02-23T00:13:29.519Z,23.61
2019-02-23T00:18:38.451Z,21.95
2019-02-23T00:23:47.470Z,21.26
2019-02-23T00:28:56.504Z,20.87
2019-02-23T00:34:05.444Z,23.90
2019-02-23T00:39:14.282Z,26.40
2019-02-23T00:44:23.188Z,27.85
2019-02-23T00:49:36.196Z,28.84
2019-02-23T00:54:39.074Z,30.02
2019-02-23T00:59:48.316Z,30.74
2019-02-23T01:04:57.176Z,29.17
2019-02-23T01:10:06.128Z,28.54
2019-02-23T01:15:15.124Z,27.07
2019-02-23T01:20:24.110Z,29.53
2019-02-23T01:25:33.419Z,26.41
2019-02-23T01:30:42.208Z,26.25
2019-02-23T01:35:53.622Z,25.61
2019-02-23T01:40:52.424Z,25.73
2019-02-23T01:46:01.322Z,26.24
2019-02-23T01:51:10.183Z,25.22
2019-02-23T01:56:20.155Z,23.45
2019-02-23T02:01:29.060Z,24.34
2019-02-23T02:06:37.985Z,20.76
2019-02-23T02:11:46.921Z,19.38
2019-02-23T02:16:55.965Z,18.32
2019-02-23T02:27:12.326Z,19.86
2019-02-23T02:32:21.616Z,19.32
2019-02-23T02:37:29.604Z,19.28
2019-02-23T02:42:38.498Z,19.23
2019-02-23T02:47:47.364Z,20.03
2019-02-23T02:52:56.540Z,20.43
2019-02-23T02:58:05.402Z,20.97
2019-02-23T03:03:15.372Z,20.82
2019-02-23T03:08:24.232Z,20.87
2019-02-23T03:13:33.127Z,20.77
2019-02-23T03:18:42.024Z,22.51
2019-02-23T03:23:50.924Z,22.35
2019-02-23T03:28:59.837Z,22.52
2019-02-23T03:34:08.676Z,21.96
2019-02-23T03:39:17.516Z,22.00
2019-02-23T03:44:26.515Z,20.97
2019-02-23T03:49:35.498Z,21.07
2019-02-23T03:54:45.425Z,21.26
2019-02-23T03:59:54.394Z,21.08
2019-02-23T04:05:03.735Z,21.51
2019-02-23T04:10:11.681Z,20.93
2019-02-23T04:15:20.481Z,21.31
2019-02-23T04:20:29.409Z,21.49
2019-02-23T04:25:38.284Z,21.18
2019-02-23T04:30:47.159Z,20.93
2019-02-23T04:35:56.842Z,20.84
2019-02-23T04:41:05.885Z,20.98
2019-02-23T04:46:14.720Z,21.41
2019-02-23T04:51:23.611Z,21.49
2019-02-23T04:56:32.495Z,20.85
2019-02-23T05:01:41.481Z,21.17
2019-02-23T05:06:50.360Z,22.30
2019-02-23T05:11:59.354Z,21.88
2019-02-23T05:17:09.466Z,22.12
2019-02-23T05:22:09.200Z,21.46
2019-02-23T05:27:18.107Z,22.78
2019-02-23T05:32:36.725Z,22.17
2019-02-23T05:37:53.091Z,23.31
2019-02-23T05:43:00.350Z,22.78
2019-02-23T05:47:49.360Z,22.66
2019-02-23T05:52:58.688Z,21.90
2019-02-23T05:58:07.559Z,22.76
2019-02-23T06:03:18.894Z,22.14
2019-02-23T06:08:17.800Z,22.31
2019-02-23T06:13:26.736Z,21.88
2019-02-23T06:18:36.091Z,21.65
2019-02-23T06:23:44.040Z,22.49
2019-02-23T06:28:52.950Z,22.95
2019-02-23T06:34:01.885Z,23.45
2019-02-23T06:39:10.804Z,22.86
2019-02-23T06:44:19.714Z,23.42
2019-02-23T06:49:28.766Z,24.27
2019-02-23T06:54:37.566Z,25.12
2019-02-23T06:59:46.525Z,25.50
2019-02-23T07:04:55.660Z,24.74
2019-02-23T07:10:04.498Z,25.56
2019-02-23T07:15:13.975Z,25.12
2019-02-23T07:20:22.609Z,25.85
2019-02-23T07:25:31.453Z,25.63
2019-02-23T07:30:40.266Z,27.20
2019-02-23T07:35:49.159Z,26.60
2019-02-23T07:40:57.992Z,27.69
2019-02-23T07:46:06.910Z,27.20
2019-02-23T07:51:15.775Z,27.04
2019-02-23T07:56:24.609Z,28.15
2019-02-23T08:01:35.782Z,28.69
2019-02-23T08:06:34.587Z,35.17
2019-02-23T08:11:43.532Z,29.59
2019-02-23T08:16:52.358Z,29.78
2019-02-23T08:22:01.224Z,29.56
2019-02-23T08:27:10.058Z,29.49
2019-02-23T08:32:18.911Z,29.76
2019-02-23T08:37:27.895Z,29.40
2019-02-23T08:42:42.348Z,29.02
2019-02-23T08:47:41.693Z,29.39
2019-02-23T08:52:50.586Z,30.62
2019-02-23T08:57:59.549Z,30.17
2019-02-23T09:03:08.459Z,27.99
2019-02-23T09:08:17.367Z,28.03
2019-02-23T09:13:26.606Z,28.36
2019-02-23T09:18:35.499Z,27.41
2019-02-23T09:23:44.340Z,28.37
2019-02-23T09:28:53.256Z,27.99
2019-02-23T09:34:02.156Z,27.48
2019-02-23T09:39:10.987Z,27.71
2019-02-23T09:44:19.897Z,27.61
2019-02-23T09:49:29.739Z,27.48
2019-02-23T09:54:39.688Z,27.25
2019-02-23T09:59:48.543Z,27.29
2019-02-23T10:04:57.386Z,26.51
2019-02-23T10:10:08.275Z,27.08
2019-02-23T10:15:09.486Z,26.82
2019-02-23T10:20:08.921Z,27.03
2019-02-23T10:25:17.778Z,25.76
2019-02-23T10:30:26.622Z,25.54
2019-02-23T10:35:35.502Z,26.31
2019-02-23T10:40:44.459Z,27.34
2019-02-23T10:45:53.761Z,27.53
2019-02-23T10:51:01.838Z,27.62
2019-02-23T10:56:10.671Z,28.13
2019-02-23T11:01:19.528Z,27.62
2019-02-23T11:06:28.383Z,27.35
2019-02-23T11:11:37.283Z,27.35
2019-02-23T11:16:46.161Z,27.41
2019-02-23T11:21:55.452Z,27.73
2019-02-23T11:27:04.291Z,28.09
2019-02-23T11:32:13.196Z,27.88
2019-02-23T11:37:22.330Z,28.11
2019-02-23T11:42:31.393Z,27.98
2019-02-23T11:47:40.874Z,27.94
2019-02-23T11:52:49.766Z,27.07
2019-02-23T11:57:58.644Z,27.75
2019-02-23T12:03:08.221Z,27.81
2019-02-23T12:08:17.214Z,27.32
2019-02-23T12:13:26.256Z,27.61
2019-02-23T12:18:35.120Z,27.71
2019-02-23T12:23:43.995Z,27.77
2019-02-23T12:28:52.854Z,28.66
2019-02-23T12:34:02.875Z,28.06
2019-02-23T12:39:04.830Z,28.33
2019-02-23T12:44:04.093Z,28.99
2019-02-23T12:49:12.975Z,29.64
2019-02-23T12:54:22.842Z,29.03
2019-02-23T12:59:31.725Z,29.59
2019-02-23T13:04:40.675Z,29.60
2019-02-23T13:09:49.630Z,28.62
2019-02-23T13:14:58.546Z,28.88
2019-02-23T13:20:07.430Z,29.10
2019-02-23T13:25:16.789Z,28.59
2019-02-23T13:30:25.772Z,29.43
2019-02-23T13:35:33.175Z,28.71
2019-02-23T13:40:42.057Z,28.50
2019-02-23T13:45:52.429Z,29.04
2019-02-23T13:50:51.813Z,29.82
2019-02-23T13:56:00.802Z,28.85
2019-02-23T14:01:10.570Z,29.37
2019-02-23T14:06:19.463Z,28.69
2019-02-23T14:11:28.371Z,28.96
2019-02-23T14:16:37.312Z,29.74
2019-02-23T14:21:46.300Z,30.60
2019-02-23T14:26:55.880Z,29.04
2019-02-23T14:32:04.861Z,29.46
2019-02-23T14:37:13.811Z,28.65
2019-02-23T14:42:22.733Z,28.64
2019-02-23T14:47:31.643Z,28.99
2019-02-23T14:52:40.535Z,29.71
2019-02-23T14:57:49.470Z,29.24
2019-02-23T15:02:58.349Z,29.29
2019-02-23T15:08:09.772Z,28.95
2019-02-23T15:13:10.727Z,29.81
2019-02-23T15:18:07.312Z,28.30
2019-02-23T15:23:16.256Z,30.18
2019-02-23T15:28:37.197Z,29.75
2019-02-23T15:33:33.631Z,29.82
2019-02-23T15:38:42.936Z,29.16
2019-02-23T15:43:53.474Z,29.81
2019-02-23T15:48:53.116Z,30.54
2019-02-23T15:54:02.900Z,30.29
2019-02-23T15:59:12.124Z,29.52
2019-02-23T16:04:21.010Z,30.39
2019-02-23T16:09:29.898Z,30.49
2019-02-23T16:14:38.882Z,30.85
2019-02-23T16:19:47.701Z,32.43
2019-02-23T16:24:56.690Z,33.04
2019-02-23T16:30:06.959Z,32.93
2019-02-23T16:35:06.852Z,32.86
2019-02-23T16:40:15.690Z,31.52
2019-02-23T16:45:24.922Z,30.80
2019-02-23T16:50:33.828Z,32.43
2019-02-23T16:55:50.586Z,32.55
2019-02-23T17:00:51.131Z,32.47
2019-02-23T17:05:59.977Z,31.54
2019-02-23T17:11:08.835Z,31.86
2019-02-23T17:16:17.836Z,31.08
2019-02-23T17:21:26.688Z,31.49
2019-02-23T17:26:36.763Z,32.46
2019-02-23T17:31:44.243Z,31.85
2019-02-23T17:36:53.156Z,31.79
2019-02-23T17:42:02.142Z,31.16
2019-02-23T17:47:11.899Z,31.47
2019-02-23T17:52:20.800Z,31.22
2019-02-23T17:57:31.821Z,34.89
2019-02-23T18:02:30.638Z,33.49
2019-02-23T18:07:39.571Z,32.32
2019-02-23T18:12:48.584Z,57.20
2019-02-23T18:17:57.485Z,35.26
2019-02-23T18:23:05.088Z,41.06
2019-02-23T18:28:15.939Z,33.86
2019-02-23T18:33:22.599Z,39.94
2019-02-23T18:38:31.464Z,36.99
2019-02-23T18:43:40.429Z,54.57
2019-02-23T18:48:49.299Z,55.52
2019-02-23T18:53:59.400Z,36.17
2019-02-23T18:58:59.391Z,46.77
2019-02-23T19:03:58.291Z,35.04
2019-02-23T19:09:10.250Z,36.39
2019-02-23T19:14:09.106Z,38.87
2019-02-23T19:19:16.850Z,36.28
2019-02-23T19:24:25.844Z,35.69
2019-02-23T19:29:34.805Z,36.52
2019-02-23T19:34:43.645Z,36.05
2019-02-23T19:39:52.574Z,38.43
2019-02-23T19:45:01.557Z,37.68
2019-02-23T19:50:08.923Z,36.97
2019-02-23T19:55:18.004Z,36.68
2019-02-23T20:00:26.862Z,37.34
2019-02-23T20:05:35.710Z,37.10
2019-02-23T20:10:44.531Z,37.22
2019-02-23T20:15:53.785Z,36.39
2019-02-23T20:21:02.791Z,38.63
2019-02-23T20:26:11.850Z,37.68
2019-02-23T20:31:20.751Z,37.17
2019-02-23T20:36:29.638Z,36.61
2019-02-23T20:41:38.495Z,38.72
2019-02-23T20:46:47.347Z,36.90
2019-02-23T20:51:56.715Z,36.42
2019-02-23T20:57:13.657Z,37.99
2019-02-23T21:02:14.429Z,35.72
2019-02-23T21:07:23.319Z,36.80
2019-02-23T21:12:32.622Z,41.81
2019-02-23T21:17:41.802Z,40.90
2019-02-23T21:22:50.649Z,38.67
2019-02-23T21:28:00.071Z,39.89
2019-02-23T21:33:10.203Z,40.71
2019-02-23T21:38:09.010Z,43.16
2019-02-23T21:43:17.898Z,39.29
2019-02-23T21:48:28.972Z,40.38
2019-02-23T21:53:27.770Z,40.63
2019-02-23T21:58:36.754Z,40.55
2019-02-23T22:03:45.719Z,39.11
2019-02-23T22:08:54.628Z,38.92
2019-02-23T22:14:03.776Z,39.03
2019-02-23T22:19:12.162Z,40.99
2019-02-23T22:24:21.075Z,39.89
2019-02-23T22:29:30.064Z,40.60
2019-02-23T22:34:39.938Z,47.85
2019-02-23T22:39:41.046Z,46.85
2019-02-23T22:44:39.407Z,46.57
2019-02-23T22:49:52.590Z,41.34
2019-02-23T22:54:56.667Z,42.20
2019-02-23T22:59:56.118Z,41.20
2019-02-23T23:05:04.584Z,40.43
2019-02-23T23:10:13.804Z,39.91
2019-02-23T23:15:23.584Z,39.99
2019-02-23T23:20:32.496Z,40.41
2019-02-23T23:25:41.476Z,38.94
2019-02-23T23:30:50.390Z,40.98
2019-02-23T23:35:59.679Z,40.84
2019-02-23T23:41:07.644Z,40.48
2019-02-23T23:46:16.838Z,40.85
2019-02-23T23:51:25.339Z,40.76
2019-02-23T23:56:33.264Z,40.60
